sensor_id;sensor_type;location;lat;lon;timestamp;P1;durP1;ratioP1;P2;durP2;ratioP2
76171;SDS011;64929;51.178;4.138;2024-01-30T00:01:52;8.10;;;5.53;;
76171;SDS011;64929;51.178;4.138;2024-01-30T00:04:17;10.82;;;6.18;;
76171;SDS011;64929;51.178;4.138;2024-01-30T00:06:43;7.93;;;5.35;;
76171;SDS011;64929;51.178;4.138;2024-01-30T00:09:09;11.75;;;5.60;;
76171;SDS011;64929;51.178;4.138;2024-01-30T00:11:36;10.35;;;5.70;;
76171;SDS011;64929;51.178;4.138;2024-01-30T00:14:02;13.60;;;5.68;;
76171;SDS011;64929;51.178;4.138;2024-01-30T00:16:28;10.63;;;5.88;;
76171;SDS011;64929;51.178;4.138;2024-01-30T00:18:54;8.30;;;5.47;;
76171;SDS011;64929;51.178;4.138;2024-01-30T00:21:20;10.30;;;6.05;;
76171;SDS011;64929;51.178;4.138;2024-01-30T00:23:46;10.57;;;5.93;;
76171;SDS011;64929;51.178;4.138;2024-01-30T00:26:12;7.93;;;5.68;;
76171;SDS011;64929;51.178;4.138;2024-01-30T00:28:40;9.20;;;5.97;;
76171;SDS011;64929;51.178;4.138;2024-01-30T00:31:07;7.38;;;5.40;;
76171;SDS011;64929;51.178;4.138;2024-01-30T00:33:33;8.30;;;5.40;;
76171;SDS011;64929;51.178;4.138;2024-01-30T00:35:59;8.20;;;5.28;;
76171;SDS011;64929;51.178;4.138;2024-01-30T00:38:25;8.55;;;5.10;;
76171;SDS011;64929;51.178;4.138;2024-01-30T00:40:51;8.27;;;4.72;;
76171;SDS011;64929;51.178;4.138;2024-01-30T00:43:17;8.23;;;5.78;;
76171;SDS011;64929;51.178;4.138;2024-01-30T00:45:45;11.85;;;5.38;;
76171;SDS011;64929;51.178;4.138;2024-01-30T00:48:11;7.72;;;5.05;;
76171;SDS011;64929;51.178;4.138;2024-01-30T00:50:37;9.43;;;5.78;;
76171;SDS011;64929;51.178;4.138;2024-01-30T00:53:02;7.78;;;5.05;;
76171;SDS011;64929;51.178;4.138;2024-01-30T00:55:28;8.57;;;5.28;;
76171;SDS011;64929;51.178;4.138;2024-01-30T00:57:54;8.75;;;5.28;;
76171;SDS011;64929;51.178;4.138;2024-01-30T01:00:20;9.05;;;5.60;;
76171;SDS011;64929;51.178;4.138;2024-01-30T01:02:46;9.25;;;5.38;;
76171;SDS011;64929;51.178;4.138;2024-01-30T01:05:12;7.63;;;5.28;;
76171;SDS011;64929;51.178;4.138;2024-01-30T01:07:38;7.95;;;4.95;;
76171;SDS011;64929;51.178;4.138;2024-01-30T01:10:05;7.57;;;5.50;;
76171;SDS011;64929;51.178;4.138;2024-01-30T01:12:31;9.82;;;5.70;;
76171;SDS011;64929;51.178;4.138;2024-01-30T01:14:57;6.72;;;4.90;;
76171;SDS011;64929;51.178;4.138;2024-01-30T01:17:22;6.10;;;4.88;;
76171;SDS011;64929;51.178;4.138;2024-01-30T01:19:48;9.95;;;5.55;;
76171;SDS011;64929;51.178;4.138;2024-01-30T01:22:15;11.57;;;5.85;;
76171;SDS011;64929;51.178;4.138;2024-01-30T01:24:42;7.80;;;5.00;;
76171;SDS011;64929;51.178;4.138;2024-01-30T01:27:07;10.13;;;5.50;;
76171;SDS011;64929;51.178;4.138;2024-01-30T01:29:33;9.45;;;5.25;;
76171;SDS011;64929;51.178;4.138;2024-01-30T01:31:59;8.80;;;5.32;;
76171;SDS011;64929;51.178;4.138;2024-01-30T01:34:25;9.75;;;5.68;;
76171;SDS011;64929;51.178;4.138;2024-01-30T01:36:50;9.50;;;5.38;;
76171;SDS011;64929;51.178;4.138;2024-01-30T01:39:16;7.88;;;5.35;;
76171;SDS011;64929;51.178;4.138;2024-01-30T01:41:43;8.63;;;4.88;;
76171;SDS011;64929;51.178;4.138;2024-01-30T01:44:08;7.72;;;5.20;;
76171;SDS011;64929;51.178;4.138;2024-01-30T01:46:35;8.20;;;5.53;;
76171;SDS011;64929;51.178;4.138;2024-01-30T01:49:02;8.38;;;5.68;;
76171;SDS011;64929;51.178;4.138;2024-01-30T01:51:29;8.45;;;5.15;;
76171;SDS011;64929;51.178;4.138;2024-01-30T01:53:58;7.10;;;5.28;;
76171;SDS011;64929;51.178;4.138;2024-01-30T01:56:30;11.45;;;5.72;;
76171;SDS011;64929;51.178;4.138;2024-01-30T01:58:59;6.90;;;4.95;;
76171;SDS011;64929;51.178;4.138;2024-01-30T02:01:28;8.15;;;5.68;;
76171;SDS011;64929;51.178;4.138;2024-01-30T02:03:55;7.95;;;5.15;;
76171;SDS011;64929;51.178;4.138;2024-01-30T02:06:21;10.55;;;5.68;;
76171;SDS011;64929;51.178;4.138;2024-01-30T02:08:47;8.73;;;5.25;;
76171;SDS011;64929;51.178;4.138;2024-01-30T02:11:13;9.88;;;5.70;;
76171;SDS011;64929;51.178;4.138;2024-01-30T02:13:40;8.88;;;4.82;;
76171;SDS011;64929;51.178;4.138;2024-01-30T02:16:06;11.60;;;5.63;;
76171;SDS011;64929;51.178;4.138;2024-01-30T02:18:32;12.02;;;5.25;;
76171;SDS011;64929;51.178;4.138;2024-01-30T02:20:58;7.38;;;5.15;;
76171;SDS011;64929;51.178;4.138;2024-01-30T02:23:26;8.82;;;5.68;;
76171;SDS011;64929;51.178;4.138;2024-01-30T02:25:52;9.30;;;4.95;;
76171;SDS011;64929;51.178;4.138;2024-01-30T02:28:18;8.63;;;5.32;;
76171;SDS011;64929;51.178;4.138;2024-01-30T02:30:45;8.57;;;5.05;;
76171;SDS011;64929;51.178;4.138;2024-01-30T02:33:11;8.15;;;5.03;;
76171;SDS011;64929;51.178;4.138;2024-01-30T02:35:38;10.38;;;5.95;;
76171;SDS011;64929;51.178;4.138;2024-01-30T02:38:04;9.50;;;4.93;;
76171;SDS011;64929;51.178;4.138;2024-01-30T02:40:30;6.82;;;4.45;;
76171;SDS011;64929;51.178;4.138;2024-01-30T02:42:57;7.15;;;5.10;;
76171;SDS011;64929;51.178;4.138;2024-01-30T02:45:24;8.10;;;4.80;;
76171;SDS011;64929;51.178;4.138;2024-01-30T02:47:50;10.05;;;5.20;;
76171;SDS011;64929;51.178;4.138;2024-01-30T02:50:16;7.80;;;4.90;;
76171;SDS011;64929;51.178;4.138;2024-01-30T02:52:42;10.40;;;5.13;;
76171;SDS011;64929;51.178;4.138;2024-01-30T02:55:10;9.13;;;5.00;;
76171;SDS011;64929;51.178;4.138;2024-01-30T02:57:37;9.05;;;5.18;;
76171;SDS011;64929;51.178;4.138;2024-01-30T03:00:05;5.93;;;4.65;;
76171;SDS011;64929;51.178;4.138;2024-01-30T03:02:34;7.80;;;5.03;;
76171;SDS011;64929;51.178;4.138;2024-01-30T03:05:00;7.00;;;4.68;;
76171;SDS011;64929;51.178;4.138;2024-01-30T03:07:25;5.90;;;4.13;;
76171;SDS011;64929;51.178;4.138;2024-01-30T03:09:51;6.75;;;4.70;;
76171;SDS011;64929;51.178;4.138;2024-01-30T03:12:17;9.23;;;4.82;;
76171;SDS011;64929;51.178;4.138;2024-01-30T03:14:43;8.00;;;4.78;;
76171;SDS011;64929;51.178;4.138;2024-01-30T03:17:09;6.60;;;4.20;;
76171;SDS011;64929;51.178;4.138;2024-01-30T03:19:35;7.47;;;4.80;;
76171;SDS011;64929;51.178;4.138;2024-01-30T03:22:00;8.60;;;4.90;;
76171;SDS011;64929;51.178;4.138;2024-01-30T03:24:26;7.20;;;5.20;;
76171;SDS011;64929;51.178;4.138;2024-01-30T03:26:53;11.07;;;5.53;;
76171;SDS011;64929;51.178;4.138;2024-01-30T03:29:18;8.90;;;5.28;;
76171;SDS011;64929;51.178;4.138;2024-01-30T03:31:44;6.05;;;4.63;;
76171;SDS011;64929;51.178;4.138;2024-01-30T03:34:10;7.07;;;4.90;;
76171;SDS011;64929;51.178;4.138;2024-01-30T03:36:35;7.75;;;5.03;;
76171;SDS011;64929;51.178;4.138;2024-01-30T03:39:01;7.13;;;5.47;;
76171;SDS011;64929;51.178;4.138;2024-01-30T03:41:27;11.48;;;5.50;;
76171;SDS011;64929;51.178;4.138;2024-01-30T03:43:53;5.95;;;4.90;;
76171;SDS011;64929;51.178;4.138;2024-01-30T03:46:18;9.38;;;5.43;;
76171;SDS011;64929;51.178;4.138;2024-01-30T03:48:47;8.55;;;5.45;;
76171;SDS011;64929;51.178;4.138;2024-01-30T03:51:13;9.40;;;5.28;;
76171;SDS011;64929;51.178;4.138;2024-01-30T03:53:42;8.38;;;5.20;;
76171;SDS011;64929;51.178;4.138;2024-01-30T03:56:08;6.97;;;4.82;;
76171;SDS011;64929;51.178;4.138;2024-01-30T03:58:34;8.82;;;5.82;;
76171;SDS011;64929;51.178;4.138;2024-01-30T04:01:00;8.45;;;5.20;;
76171;SDS011;64929;51.178;4.138;2024-01-30T04:03:26;11.40;;;5.68;;
76171;SDS011;64929;51.178;4.138;2024-01-30T04:05:52;9.02;;;4.68;;
76171;SDS011;64929;51.178;4.138;2024-01-30T04:08:18;9.43;;;4.88;;
76171;SDS011;64929;51.178;4.138;2024-01-30T04:10:44;6.38;;;4.97;;
76171;SDS011;64929;51.178;4.138;2024-01-30T04:13:09;7.93;;;4.80;;
76171;SDS011;64929;51.178;4.138;2024-01-30T04:15:35;10.20;;;5.25;;
76171;SDS011;64929;51.178;4.138;2024-01-30T04:18:01;8.30;;;5.05;;
76171;SDS011;64929;51.178;4.138;2024-01-30T04:20:27;8.32;;;5.10;;
76171;SDS011;64929;51.178;4.138;2024-01-30T04:22:53;7.63;;;4.60;;
76171;SDS011;64929;51.178;4.138;2024-01-30T04:25:18;7.57;;;5.13;;
76171;SDS011;64929;51.178;4.138;2024-01-30T04:27:44;7.80;;;5.07;;
76171;SDS011;64929;51.178;4.138;2024-01-30T04:30:10;9.55;;;5.22;;
76171;SDS011;64929;51.178;4.138;2024-01-30T04:32:36;7.70;;;4.97;;
76171;SDS011;64929;51.178;4.138;2024-01-30T04:35:02;9.70;;;4.88;;
76171;SDS011;64929;51.178;4.138;2024-01-30T04:37:28;7.97;;;5.10;;
76171;SDS011;64929;51.178;4.138;2024-01-30T04:39:54;6.85;;;4.72;;
76171;SDS011;64929;51.178;4.138;2024-01-30T04:42:20;7.53;;;4.75;;
76171;SDS011;64929;51.178;4.138;2024-01-30T04:44:45;9.15;;;5.00;;
76171;SDS011;64929;51.178;4.138;2024-01-30T04:47:11;9.18;;;5.88;;
76171;SDS011;64929;51.178;4.138;2024-01-30T04:49:39;8.18;;;5.75;;
76171;SDS011;64929;51.178;4.138;2024-01-30T04:52:06;8.57;;;5.40;;
76171;SDS011;64929;51.178;4.138;2024-01-30T04:54:32;8.38;;;5.25;;
76171;SDS011;64929;51.178;4.138;2024-01-30T04:56:58;9.43;;;5.38;;
76171;SDS011;64929;51.178;4.138;2024-01-30T04:59:24;7.30;;;4.90;;
76171;SDS011;64929;51.178;4.138;2024-01-30T05:01:49;9.40;;;4.88;;
76171;SDS011;64929;51.178;4.138;2024-01-30T05:04:15;8.63;;;4.93;;
76171;SDS011;64929;51.178;4.138;2024-01-30T05:06:41;10.18;;;5.40;;
76171;SDS011;64929;51.178;4.138;2024-01-30T05:09:07;9.07;;;5.18;;
76171;SDS011;64929;51.178;4.138;2024-01-30T05:11:39;9.40;;;4.85;;
76171;SDS011;64929;51.178;4.138;2024-01-30T05:14:06;6.63;;;4.65;;
76171;SDS011;64929;51.178;4.138;2024-01-30T05:16:33;10.68;;;5.25;;
76171;SDS011;64929;51.178;4.138;2024-01-30T05:19:00;7.90;;;5.13;;
76171;SDS011;64929;51.178;4.138;2024-01-30T05:21:26;9.73;;;5.35;;
76171;SDS011;64929;51.178;4.138;2024-01-30T05:23:51;8.82;;;5.45;;
76171;SDS011;64929;51.178;4.138;2024-01-30T05:26:17;7.20;;;5.20;;
76171;SDS011;64929;51.178;4.138;2024-01-30T05:28:43;7.47;;;5.18;;
76171;SDS011;64929;51.178;4.138;2024-01-30T05:31:11;10.35;;;5.40;;
76171;SDS011;64929;51.178;4.138;2024-01-30T05:33:37;8.48;;;5.15;;
76171;SDS011;64929;51.178;4.138;2024-01-30T05:36:03;6.78;;;4.90;;
76171;SDS011;64929;51.178;4.138;2024-01-30T05:38:29;8.02;;;4.85;;
76171;SDS011;64929;51.178;4.138;2024-01-30T05:40:55;7.40;;;5.10;;
76171;SDS011;64929;51.178;4.138;2024-01-30T05:43:23;8.75;;;5.88;;
76171;SDS011;64929;51.178;4.138;2024-01-30T05:45:48;10.90;;;5.45;;
76171;SDS011;64929;51.178;4.138;2024-01-30T05:48:14;9.38;;;4.97;;
76171;SDS011;64929;51.178;4.138;2024-01-30T05:50:40;11.05;;;5.53;;
76171;SDS011;64929;51.178;4.138;2024-01-30T05:53:05;7.85;;;5.45;;
76171;SDS011;64929;51.178;4.138;2024-01-30T05:55:31;10.05;;;5.00;;
76171;SDS011;64929;51.178;4.138;2024-01-30T05:57:57;8.25;;;5.38;;
76171;SDS011;64929;51.178;4.138;2024-01-30T06:00:23;7.68;;;4.78;;
76171;SDS011;64929;51.178;4.138;2024-01-30T06:02:48;10.45;;;4.85;;
76171;SDS011;64929;51.178;4.138;2024-01-30T06:05:14;8.73;;;5.28;;
76171;SDS011;64929;51.178;4.138;2024-01-30T06:07:40;10.65;;;5.78;;
76171;SDS011;64929;51.178;4.138;2024-01-30T06:10:05;9.25;;;5.38;;
76171;SDS011;64929;51.178;4.138;2024-01-30T06:12:32;7.60;;;4.75;;
76171;SDS011;64929;51.178;4.138;2024-01-30T06:14:57;8.85;;;5.30;;
76171;SDS011;64929;51.178;4.138;2024-01-30T06:17:23;10.73;;;5.55;;
76171;SDS011;64929;51.178;4.138;2024-01-30T06:19:49;10.32;;;5.45;;
76171;SDS011;64929;51.178;4.138;2024-01-30T06:22:15;8.70;;;5.32;;
76171;SDS011;64929;51.178;4.138;2024-01-30T06:24:41;7.25;;;4.63;;
76171;SDS011;64929;51.178;4.138;2024-01-30T06:27:09;8.15;;;4.95;;
76171;SDS011;64929;51.178;4.138;2024-01-30T06:29:35;10.52;;;5.18;;
76171;SDS011;64929;51.178;4.138;2024-01-30T06:32:01;9.00;;;5.45;;
76171;SDS011;64929;51.178;4.138;2024-01-30T06:34:27;7.82;;;5.30;;
76171;SDS011;64929;51.178;4.138;2024-01-30T06:36:53;8.18;;;5.13;;
76171;SDS011;64929;51.178;4.138;2024-01-30T06:39:18;9.90;;;6.00;;
76171;SDS011;64929;51.178;4.138;2024-01-30T06:41:44;9.82;;;5.60;;
76171;SDS011;64929;51.178;4.138;2024-01-30T06:44:11;9.10;;;5.22;;
76171;SDS011;64929;51.178;4.138;2024-01-30T06:46:38;7.30;;;5.22;;
76171;SDS011;64929;51.178;4.138;2024-01-30T06:49:03;9.13;;;5.47;;
76171;SDS011;64929;51.178;4.138;2024-01-30T06:51:29;8.90;;;5.45;;
76171;SDS011;64929;51.178;4.138;2024-01-30T06:53:55;8.25;;;5.00;;
76171;SDS011;64929;51.178;4.138;2024-01-30T06:56:20;8.57;;;5.50;;
76171;SDS011;64929;51.178;4.138;2024-01-30T06:58:47;8.75;;;5.45;;
76171;SDS011;64929;51.178;4.138;2024-01-30T07:01:16;10.38;;;5.28;;
76171;SDS011;64929;51.178;4.138;2024-01-30T07:03:42;9.77;;;5.10;;
76171;SDS011;64929;51.178;4.138;2024-01-30T07:06:08;7.63;;;4.95;;
76171;SDS011;64929;51.178;4.138;2024-01-30T07:08:35;10.65;;;5.72;;
76171;SDS011;64929;51.178;4.138;2024-01-30T07:11:04;8.52;;;5.25;;
76171;SDS011;64929;51.178;4.138;2024-01-30T07:13:31;9.10;;;5.55;;
76171;SDS011;64929;51.178;4.138;2024-01-30T07:15:56;11.32;;;5.53;;
76171;SDS011;64929;51.178;4.138;2024-01-30T07:18:22;7.10;;;5.38;;
76171;SDS011;64929;51.178;4.138;2024-01-30T07:20:48;9.60;;;5.57;;
76171;SDS011;64929;51.178;4.138;2024-01-30T07:23:15;9.18;;;5.28;;
76171;SDS011;64929;51.178;4.138;2024-01-30T07:25:43;8.73;;;4.97;;
76171;SDS011;64929;51.178;4.138;2024-01-30T07:28:09;8.50;;;5.40;;
76171;SDS011;64929;51.178;4.138;2024-01-30T07:30:36;9.43;;;5.15;;
76171;SDS011;64929;51.178;4.138;2024-01-30T07:33:03;9.00;;;5.93;;
76171;SDS011;64929;51.178;4.138;2024-01-30T07:35:29;7.50;;;5.30;;
76171;SDS011;64929;51.178;4.138;2024-01-30T07:37:54;10.73;;;5.65;;
76171;SDS011;64929;51.178;4.138;2024-01-30T07:40:20;9.20;;;5.95;;
76171;SDS011;64929;51.178;4.138;2024-01-30T07:42:46;8.43;;;5.05;;
76171;SDS011;64929;51.178;4.138;2024-01-30T07:45:13;12.60;;;5.13;;
76171;SDS011;64929;51.178;4.138;2024-01-30T07:47:39;14.20;;;6.03;;
76171;SDS011;64929;51.178;4.138;2024-01-30T07:50:04;10.95;;;5.32;;
76171;SDS011;64929;51.178;4.138;2024-01-30T07:52:31;9.88;;;5.65;;
76171;SDS011;64929;51.178;4.138;2024-01-30T07:54:56;13.43;;;5.40;;
76171;SDS011;64929;51.178;4.138;2024-01-30T07:57:22;9.77;;;5.28;;
76171;SDS011;64929;51.178;4.138;2024-01-30T07:59:50;10.88;;;5.63;;
76171;SDS011;64929;51.178;4.138;2024-01-30T08:02:16;8.85;;;5.43;;
76171;SDS011;64929;51.178;4.138;2024-01-30T08:04:42;10.75;;;5.25;;
76171;SDS011;64929;51.178;4.138;2024-01-30T08:07:08;8.27;;;5.30;;
76171;SDS011;64929;51.178;4.138;2024-01-30T08:09:33;10.85;;;5.45;;
76171;SDS011;64929;51.178;4.138;2024-01-30T08:11:59;8.98;;;5.57;;
76171;SDS011;64929;51.178;4.138;2024-01-30T08:14:25;7.53;;;5.13;;
76171;SDS011;64929;51.178;4.138;2024-01-30T08:16:51;8.20;;;5.60;;
76171;SDS011;64929;51.178;4.138;2024-01-30T08:19:16;8.98;;;5.68;;
76171;SDS011;64929;51.178;4.138;2024-01-30T08:21:42;10.27;;;6.07;;
76171;SDS011;64929;51.178;4.138;2024-01-30T08:24:08;8.65;;;5.38;;
76171;SDS011;64929;51.178;4.138;2024-01-30T08:26:34;11.63;;;5.35;;
76171;SDS011;64929;51.178;4.138;2024-01-30T08:29:00;10.82;;;5.53;;
76171;SDS011;64929;51.178;4.138;2024-01-30T08:31:26;8.80;;;5.63;;
76171;SDS011;64929;51.178;4.138;2024-01-30T08:33:52;9.88;;;5.38;;
76171;SDS011;64929;51.178;4.138;2024-01-30T08:36:18;9.13;;;5.47;;
76171;SDS011;64929;51.178;4.138;2024-01-30T08:38:45;9.13;;;5.60;;
76171;SDS011;64929;51.178;4.138;2024-01-30T08:41:10;9.00;;;5.28;;
76171;SDS011;64929;51.178;4.138;2024-01-30T08:43:36;10.52;;;5.55;;
76171;SDS011;64929;51.178;4.138;2024-01-30T08:46:02;8.60;;;5.00;;
76171;SDS011;64929;51.178;4.138;2024-01-30T08:48:28;8.55;;;5.15;;
76171;SDS011;64929;51.178;4.138;2024-01-30T08:50:54;9.27;;;5.55;;
76171;SDS011;64929;51.178;4.138;2024-01-30T08:53:20;12.27;;;5.65;;
76171;SDS011;64929;51.178;4.138;2024-01-30T08:55:45;17.10;;;6.50;;
76171;SDS011;64929;51.178;4.138;2024-01-30T08:58:11;7.88;;;5.72;;
76171;SDS011;64929;51.178;4.138;2024-01-30T09:00:37;13.43;;;5.97;;
76171;SDS011;64929;51.178;4.138;2024-01-30T09:03:03;7.68;;;5.57;;
76171;SDS011;64929;51.178;4.138;2024-01-30T09:05:29;9.07;;;6.18;;
76171;SDS011;64929;51.178;4.138;2024-01-30T09:07:55;13.32;;;5.65;;
76171;SDS011;64929;51.178;4.138;2024-01-30T09:10:21;8.80;;;5.40;;
76171;SDS011;64929;51.178;4.138;2024-01-30T09:12:47;10.00;;;6.82;;
76171;SDS011;64929;51.178;4.138;2024-01-30T09:15:13;13.05;;;6.88;;
76171;SDS011;64929;51.178;4.138;2024-01-30T09:17:39;13.00;;;6.45;;
76171;SDS011;64929;51.178;4.138;2024-01-30T09:20:05;11.07;;;6.72;;
76171;SDS011;64929;51.178;4.138;2024-01-30T09:22:31;13.93;;;6.82;;
76171;SDS011;64929;51.178;4.138;2024-01-30T09:24:57;13.73;;;6.60;;
76171;SDS011;64929;51.178;4.138;2024-01-30T09:27:23;11.93;;;6.20;;
76171;SDS011;64929;51.178;4.138;2024-01-30T09:29:49;15.27;;;6.45;;
76171;SDS011;64929;51.178;4.138;2024-01-30T09:32:15;13.95;;;7.72;;
76171;SDS011;64929;51.178;4.138;2024-01-30T09:34:40;13.32;;;5.50;;
76171;SDS011;64929;51.178;4.138;2024-01-30T09:37:07;13.48;;;5.80;;
76171;SDS011;64929;51.178;4.138;2024-01-30T09:39:32;15.25;;;6.90;;
76171;SDS011;64929;51.178;4.138;2024-01-30T09:44:48;11.25;;;6.25;;
76171;SDS011;64929;51.178;4.138;2024-01-30T09:47:19;14.48;;;6.18;;
76171;SDS011;64929;51.178;4.138;2024-01-30T09:49:44;13.68;;;5.50;;
76171;SDS011;64929;51.178;4.138;2024-01-30T09:52:10;10.27;;;5.70;;
76171;SDS011;64929;51.178;4.138;2024-01-30T09:54:36;12.82;;;5.53;;
76171;SDS011;64929;51.178;4.138;2024-01-30T09:57:04;12.07;;;5.15;;
76171;SDS011;64929;51.178;4.138;2024-01-30T09:59:30;9.10;;;5.43;;
76171;SDS011;64929;51.178;4.138;2024-01-30T10:01:57;9.82;;;4.82;;
76171;SDS011;64929;51.178;4.138;2024-01-30T10:04:22;8.70;;;4.60;;
76171;SDS011;64929;51.178;4.138;2024-01-30T10:06:48;8.23;;;5.38;;
76171;SDS011;64929;51.178;4.138;2024-01-30T10:09:15;8.90;;;4.70;;
76171;SDS011;64929;51.178;4.138;2024-01-30T10:11:41;11.00;;;4.85;;
76171;SDS011;64929;51.178;4.138;2024-01-30T10:14:07;10.60;;;4.35;;
76171;SDS011;64929;51.178;4.138;2024-01-30T10:16:34;9.25;;;3.97;;
76171;SDS011;64929;51.178;4.138;2024-01-30T10:19:00;8.65;;;3.70;;
76171;SDS011;64929;51.178;4.138;2024-01-30T10:21:25;6.70;;;3.00;;
76171;SDS011;64929;51.178;4.138;2024-01-30T10:23:51;6.88;;;2.78;;
76171;SDS011;64929;51.178;4.138;2024-01-30T10:26:17;3.80;;;2.20;;
76171;SDS011;64929;51.178;4.138;2024-01-30T10:28:43;5.03;;;2.00;;
76171;SDS011;64929;51.178;4.138;2024-01-30T10:31:08;4.47;;;1.65;;
76171;SDS011;64929;51.178;4.138;2024-01-30T10:33:34;3.03;;;1.38;;
76171;SDS011;64929;51.178;4.138;2024-01-30T10:36:03;4.93;;;1.50;;
76171;SDS011;64929;51.178;4.138;2024-01-30T10:38:30;3.92;;;1.50;;
76171;SDS011;64929;51.178;4.138;2024-01-30T10:40:57;1.35;;;1.02;;
76171;SDS011;64929;51.178;4.138;2024-01-30T10:43:31;6.63;;;1.55;;
76171;SDS011;64929;51.178;4.138;2024-01-30T10:46:33;2.75;;;1.23;;
76171;SDS011;64929;51.178;4.138;2024-01-30T10:48:58;3.58;;;1.02;;
76171;SDS011;64929;51.178;4.138;2024-01-30T10:51:26;5.28;;;1.05;;
76171;SDS011;64929;51.178;4.138;2024-01-30T10:53:53;2.53;;;0.88;;
76171;SDS011;64929;51.178;4.138;2024-01-30T10:56:23;4.63;;;0.95;;
76171;SDS011;64929;51.178;4.138;2024-01-30T10:58:50;1.65;;;0.70;;
76171;SDS011;64929;51.178;4.138;2024-01-30T11:01:20;2.33;;;0.40;;
76171;SDS011;64929;51.178;4.138;2024-01-30T11:03:53;1.55;;;0.60;;
76171;SDS011;64929;51.178;4.138;2024-01-30T11:06:22;1.37;;;0.70;;
76171;SDS011;64929;51.178;4.138;2024-01-30T11:09:04;0.90;;;0.68;;
76171;SDS011;64929;51.178;4.138;2024-01-30T11:14:26;3.53;;;1.00;;
76171;SDS011;64929;51.178;4.138;2024-01-30T11:16:56;2.13;;;1.13;;
76171;SDS011;64929;51.178;4.138;2024-01-30T11:19:24;2.38;;;1.30;;
76171;SDS011;64929;51.178;4.138;2024-01-30T11:21:55;3.30;;;0.70;;
76171;SDS011;64929;51.178;4.138;2024-01-30T11:24:24;1.75;;;0.70;;
76171;SDS011;64929;51.178;4.138;2024-01-30T11:26:59;1.90;;;0.75;;
76171;SDS011;64929;51.178;4.138;2024-01-30T11:29:27;2.90;;;0.60;;
76171;SDS011;64929;51.178;4.138;2024-01-30T11:31:54;2.15;;;0.75;;
76171;SDS011;64929;51.178;4.138;2024-01-30T11:34:20;4.30;;;0.80;;
76171;SDS011;64929;51.178;4.138;2024-01-30T11:36:51;2.90;;;0.70;;
76171;SDS011;64929;51.178;4.138;2024-01-30T11:39:23;6.05;;;1.15;;
76171;SDS011;64929;51.178;4.138;2024-01-30T11:41:54;6.35;;;1.45;;
76171;SDS011;64929;51.178;4.138;2024-01-30T11:44:20;2.38;;;0.80;;
76171;SDS011;64929;51.178;4.138;2024-01-30T11:46:50;5.75;;;1.08;;
76171;SDS011;64929;51.178;4.138;2024-01-30T11:49:17;4.40;;;1.00;;
76171;SDS011;64929;51.178;4.138;2024-01-30T11:51:45;3.78;;;0.70;;
76171;SDS011;64929;51.178;4.138;2024-01-30T11:54:11;3.70;;;0.95;;
76171;SDS011;64929;51.178;4.138;2024-01-30T11:56:37;5.15;;;0.82;;
76171;SDS011;64929;51.178;4.138;2024-01-30T11:59:03;3.65;;;0.88;;
76171;SDS011;64929;51.178;4.138;2024-01-30T12:01:29;0.88;;;0.63;;
76171;SDS011;64929;51.178;4.138;2024-01-30T12:03:56;1.90;;;0.73;;
76171;SDS011;64929;51.178;4.138;2024-01-30T12:06:23;5.88;;;1.00;;
76171;SDS011;64929;51.178;4.138;2024-01-30T12:08:56;4.35;;;1.10;;
76171;SDS011;64929;51.178;4.138;2024-01-30T12:11:26;3.47;;;0.68;;
76171;SDS011;64929;51.178;4.138;2024-01-30T12:13:52;5.32;;;0.80;;
76171;SDS011;64929;51.178;4.138;2024-01-30T12:16:19;6.25;;;0.80;;
76171;SDS011;64929;51.178;4.138;2024-01-30T12:18:45;2.22;;;0.98;;
76171;SDS011;64929;51.178;4.138;2024-01-30T12:21:11;5.03;;;0.85;;
76171;SDS011;64929;51.178;4.138;2024-01-30T12:23:37;3.38;;;0.60;;
76171;SDS011;64929;51.178;4.138;2024-01-30T12:26:03;4.20;;;0.68;;
76171;SDS011;64929;51.178;4.138;2024-01-30T12:28:32;5.60;;;0.90;;
76171;SDS011;64929;51.178;4.138;2024-01-30T12:31:01;4.15;;;0.90;;
76171;SDS011;64929;51.178;4.138;2024-01-30T12:33:28;3.25;;;0.90;;
76171;SDS011;64929;51.178;4.138;2024-01-30T12:35:55;6.05;;;1.42;;
76171;SDS011;64929;51.178;4.138;2024-01-30T12:38:21;7.15;;;0.70;;
76171;SDS011;64929;51.178;4.138;2024-01-30T12:40:48;5.00;;;1.25;;
76171;SDS011;64929;51.178;4.138;2024-01-30T12:43:14;2.70;;;0.63;;
76171;SDS011;64929;51.178;4.138;2024-01-30T12:45:41;2.63;;;0.60;;
76171;SDS011;64929;51.178;4.138;2024-01-30T12:48:07;2.17;;;0.68;;
76171;SDS011;64929;51.178;4.138;2024-01-30T12:50:34;5.70;;;0.93;;
76171;SDS011;64929;51.178;4.138;2024-01-30T12:52:59;4.63;;;0.70;;
76171;SDS011;64929;51.178;4.138;2024-01-30T12:55:25;6.63;;;1.25;;
76171;SDS011;64929;51.178;4.138;2024-01-30T12:57:54;4.40;;;1.88;;
76171;SDS011;64929;51.178;4.138;2024-01-30T13:00:20;5.07;;;1.02;;
76171;SDS011;64929;51.178;4.138;2024-01-30T13:02:47;3.15;;;0.73;;
76171;SDS011;64929;51.178;4.138;2024-01-30T13:05:13;3.47;;;0.60;;
76171;SDS011;64929;51.178;4.138;2024-01-30T13:07:39;2.75;;;0.80;;
76171;SDS011;64929;51.178;4.138;2024-01-30T13:10:05;3.90;;;0.98;;
76171;SDS011;64929;51.178;4.138;2024-01-30T13:12:31;5.25;;;1.33;;
76171;SDS011;64929;51.178;4.138;2024-01-30T13:15:00;3.33;;;0.70;;
76171;SDS011;64929;51.178;4.138;2024-01-30T13:17:27;2.97;;;0.90;;
76171;SDS011;64929;51.178;4.138;2024-01-30T13:19:53;6.55;;;2.00;;
76171;SDS011;64929;51.178;4.138;2024-01-30T13:22:19;2.17;;;0.65;;
76171;SDS011;64929;51.178;4.138;2024-01-30T13:24:46;2.10;;;1.10;;
76171;SDS011;64929;51.178;4.138;2024-01-30T13:27:13;6.45;;;1.05;;
76171;SDS011;64929;51.178;4.138;2024-01-30T13:29:38;2.92;;;0.98;;
76171;SDS011;64929;51.178;4.138;2024-01-30T13:32:04;4.30;;;0.82;;
76171;SDS011;64929;51.178;4.138;2024-01-30T13:34:30;3.92;;;0.98;;
76171;SDS011;64929;51.178;4.138;2024-01-30T13:36:56;4.55;;;0.70;;
76171;SDS011;64929;51.178;4.138;2024-01-30T13:39:22;2.92;;;0.90;;
76171;SDS011;64929;51.178;4.138;2024-01-30T13:41:48;2.08;;;0.55;;
76171;SDS011;64929;51.178;4.138;2024-01-30T13:44:15;5.18;;;0.80;;
76171;SDS011;64929;51.178;4.138;2024-01-30T13:46:41;3.42;;;1.15;;
76171;SDS011;64929;51.178;4.138;2024-01-30T13:49:07;2.13;;;0.80;;
76171;SDS011;64929;51.178;4.138;2024-01-30T13:51:33;2.38;;;0.77;;
76171;SDS011;64929;51.178;4.138;2024-01-30T13:53:59;3.00;;;0.85;;
76171;SDS011;64929;51.178;4.138;2024-01-30T13:56:24;6.18;;;1.65;;
76171;SDS011;64929;51.178;4.138;2024-01-30T13:58:52;1.63;;;0.68;;
76171;SDS011;64929;51.178;4.138;2024-01-30T14:01:17;3.00;;;1.00;;
76171;SDS011;64929;51.178;4.138;2024-01-30T14:03:43;4.05;;;1.02;;
76171;SDS011;64929;51.178;4.138;2024-01-30T14:06:09;4.35;;;1.20;;
76171;SDS011;64929;51.178;4.138;2024-01-30T14:08:36;3.30;;;1.27;;
76171;SDS011;64929;51.178;4.138;2024-01-30T14:11:02;4.60;;;1.17;;
76171;SDS011;64929;51.178;4.138;2024-01-30T14:13:28;3.40;;;1.38;;
76171;SDS011;64929;51.178;4.138;2024-01-30T14:15:55;4.88;;;1.10;;
76171;SDS011;64929;51.178;4.138;2024-01-30T14:18:21;2.97;;;0.90;;
76171;SDS011;64929;51.178;4.138;2024-01-30T14:20:47;1.80;;;0.95;;
76171;SDS011;64929;51.178;4.138;2024-01-30T14:23:13;5.32;;;0.90;;
76171;SDS011;64929;51.178;4.138;2024-01-30T14:25:39;8.85;;;1.10;;
76171;SDS011;64929;51.178;4.138;2024-01-30T14:28:04;2.28;;;0.98;;
76171;SDS011;64929;51.178;4.138;2024-01-30T14:30:30;4.20;;;1.20;;
76171;SDS011;64929;51.178;4.138;2024-01-30T14:32:56;4.75;;;1.02;;
76171;SDS011;64929;51.178;4.138;2024-01-30T14:35:22;4.32;;;1.25;;
76171;SDS011;64929;51.178;4.138;2024-01-30T14:37:48;2.55;;;1.42;;
76171;SDS011;64929;51.178;4.138;2024-01-30T14:40:14;5.15;;;1.33;;
76171;SDS011;64929;51.178;4.138;2024-01-30T14:42:40;5.13;;;1.40;;
76171;SDS011;64929;51.178;4.138;2024-01-30T14:45:05;3.20;;;1.27;;
76171;SDS011;64929;51.178;4.138;2024-01-30T14:47:32;6.28;;;1.52;;